Columbia Gorge Regional the Dalles Municipal Airport


Codes: KDLS/DLS
Name: Columbia Gorge Regional the Dalles Municipal Airport
City: The Dalles
Country: United States
Elevation: 247 ft.
Website:
Wikipedia:

Photos at Columbia Gorge Regional the Dalles Municipal Airport


   Photos courtesy of SpottingLog. You can add your own sightings and photos by signing up for a free trial today.



No photos found.

Weather at Columbia Gorge Regional the Dalles Municipal Airport


Time (UTC)DescriptionTempratureWindCloud coverageVisibilityPressureHumidity
25-Jun-2024 15:00Clear Sky14°C2 mph, NW0%10000m1015hPa65%
25-Jun-2024 18:00Clear Sky21°C4 mph, E0%10000m1014hPa47%
25-Jun-2024 21:00Clear Sky30°C4 mph, E0%10000m1012hPa25%
26-Jun-2024 00:00Clear Sky33°C2 mph, N0%10000m1009hPa22%
26-Jun-2024 03:00Clear Sky28°C2 mph, W0%10000m1009hPa36%
26-Jun-2024 06:00Clear Sky22°C7 mph, W0%10000m1010hPa52%
26-Jun-2024 09:00Broken Clouds20°C4 mph, NW56%10000m1009hPa61%
26-Jun-2024 12:00Broken Clouds19°C7 mph, W71%10000m1009hPa60%
26-Jun-2024 15:00Light Rain19°C7 mph, NW100%10000m1010hPa70%
26-Jun-2024 18:00Light Rain24°C13 mph, NW66%10000m1011hPa41%
26-Jun-2024 21:00Few Clouds27°C20 mph, NW17%10000m1010hPa32%
27-Jun-2024 00:00Scattered Clouds24°C20 mph, W42%10000m1011hPa41%
27-Jun-2024 03:00Overcast Clouds20°C16 mph, NW100%10000m1012hPa61%
27-Jun-2024 06:00Overcast Clouds17°C9 mph, W100%10000m1013hPa73%
27-Jun-2024 09:00Light Rain16°C7 mph, NW96%10000m1013hPa81%
27-Jun-2024 12:00Light Rain12°C4 mph, NW73%10000m1015hPa90%
27-Jun-2024 15:00Broken Clouds16°C9 mph, W74%10000m1015hPa69%
27-Jun-2024 18:00Broken Clouds16°C13 mph, NW74%10000m1016hPa67%
27-Jun-2024 21:00Few Clouds20°C20 mph, NW20%10000m1015hPa49%
28-Jun-2024 00:00Few Clouds20°C27 mph, NW17%10000m1013hPa50%
28-Jun-2024 03:00Clear Sky18°C20 mph, NW0%10000m1013hPa60%
28-Jun-2024 06:00Clear Sky14°C9 mph, W0%10000m1014hPa73%
28-Jun-2024 09:00Clear Sky12°C4 mph, NW0%10000m1015hPa84%
28-Jun-2024 12:00Clear Sky10°C4 mph, W1%10000m1016hPa89%
28-Jun-2024 15:00Clear Sky16°C2 mph, NW5%10000m1017hPa68%
28-Jun-2024 18:00Few Clouds22°C4 mph, E12%10000m1015hPa46%
28-Jun-2024 21:00Scattered Clouds26°C4 mph, E37%10000m1013hPa35%
29-Jun-2024 00:00Broken Clouds28°C2 mph, E63%10000m1011hPa30%
29-Jun-2024 03:00Overcast Clouds24°C2 mph, W100%10000m1011hPa44%
29-Jun-2024 06:00Overcast Clouds21°C4 mph, W100%10000m1011hPa50%
29-Jun-2024 09:00Overcast Clouds17°C4 mph, W100%10000m1012hPa72%
29-Jun-2024 12:00Overcast Clouds16°C4 mph, W99%10000m1012hPa83%
29-Jun-2024 15:00Overcast Clouds19°C4 mph, NW95%10000m1012hPa67%
29-Jun-2024 18:00Overcast Clouds23°C9 mph, NW97%10000m1012hPa52%
29-Jun-2024 21:00Overcast Clouds24°C13 mph, NW100%10000m1012hPa47%
30-Jun-2024 00:00Overcast Clouds25°C13 mph, NW100%10000m1011hPa42%
30-Jun-2024 03:00Overcast Clouds22°C13 mph, NW98%10000m1012hPa56%
30-Jun-2024 06:00Overcast Clouds18°C9 mph, W90%10000m1013hPa72%
30-Jun-2024 09:00Few Clouds15°C7 mph, W16%10000m1013hPa84%
30-Jun-2024 12:00Clear Sky14°C7 mph, W10%10000m1014hPa88%